createdAt,value
2019-02-06T00:01:44.699Z,35.57
2019-02-06T00:04:11.136Z,34.40
2019-02-06T00:06:37.257Z,31.20
2019-02-06T00:09:10.536Z,30.17
2019-02-06T00:11:38.537Z,24.83
2019-02-06T00:14:04.565Z,32.47
2019-02-06T00:16:30.707Z,28.55
2019-02-06T00:18:57.130Z,31.83
2019-02-06T00:21:23.214Z,31.40
2019-02-06T00:23:49.226Z,29.18
2019-02-06T00:26:15.224Z,30.90
2019-02-06T00:28:41.214Z,33.67
2019-02-06T00:31:07.286Z,29.67
2019-02-06T00:33:33.303Z,36.48
2019-02-06T00:35:59.314Z,33.83
2019-02-06T00:38:25.352Z,33.20
2019-02-06T00:40:52.073Z,30.85
2019-02-06T00:43:18.192Z,28.70
2019-02-06T00:45:44.706Z,32.95
2019-02-06T00:48:10.715Z,36.35
2019-02-06T00:50:36.745Z,30.30
2019-02-06T00:53:02.980Z,37.10
2019-02-06T00:55:28.984Z,33.10
2019-02-06T00:57:54.981Z,33.48
2019-02-06T01:00:21.947Z,30.60
2019-02-06T01:02:49.455Z,34.90
2019-02-06T01:05:16.257Z,32.20
2019-02-06T01:07:42.347Z,33.08
2019-02-06T01:10:11.242Z,28.65
2019-02-06T01:12:37.423Z,33.02
2019-02-06T01:15:04.224Z,32.55
2019-02-06T01:17:30.354Z,33.18
2019-02-06T01:19:56.483Z,34.58
2019-02-06T01:22:22.477Z,31.00
2019-02-06T01:24:49.068Z,34.60
2019-02-06T01:27:15.056Z,32.20
2019-02-06T01:29:41.081Z,32.03
2019-02-06T01:32:07.205Z,34.65
2019-02-06T01:34:33.211Z,27.45
2019-02-06T01:36:59.237Z,35.48
2019-02-06T01:39:25.235Z,26.62
2019-02-06T01:41:51.362Z,33.18
2019-02-06T01:44:17.353Z,32.50
2019-02-06T01:46:43.878Z,32.38
2019-02-06T01:49:09.882Z,33.98
2019-02-06T01:51:36.063Z,29.90
2019-02-06T01:54:02.159Z,31.68
2019-02-06T01:56:28.152Z,33.15
2019-02-06T01:58:54.165Z,32.43
2019-02-06T02:01:20.265Z,31.77
2019-02-06T02:03:46.271Z,31.40
2019-02-06T02:06:12.277Z,34.92
2019-02-06T02:08:40.789Z,30.40
2019-02-06T02:11:06.834Z,33.35
2019-02-06T04:31:53.868Z,31.90
2019-02-06T04:34:19.937Z,30.62
2019-02-06T04:36:46.237Z,31.85
2019-02-06T04:39:12.283Z,39.67
2019-02-06T04:41:38.830Z,30.40
2019-02-06T04:44:05.110Z,34.83
2019-02-06T04:46:31.263Z,32.88
2019-02-06T04:48:57.242Z,32.75
2019-02-06T04:51:23.272Z,31.37
2019-02-06T04:53:49.262Z,29.98
2019-02-06T04:56:15.312Z,31.75
2019-02-06T04:58:41.320Z,37.23
2019-02-06T05:01:07.427Z,31.30
2019-02-06T05:03:33.752Z,29.12
2019-02-06T05:05:59.803Z,33.23
2019-02-06T05:08:25.871Z,30.20
2019-02-06T05:10:51.969Z,32.90
2019-02-06T05:13:17.960Z,31.75
2019-02-06T05:15:43.969Z,33.17
2019-02-06T05:18:09.975Z,31.52
2019-02-06T05:20:37.011Z,33.40
2019-02-06T05:23:05.048Z,34.63
2019-02-06T05:25:31.146Z,33.30
2019-02-06T05:27:57.174Z,29.63
2019-02-06T05:30:23.160Z,36.53
2019-02-06T05:32:49.168Z,31.55
2019-02-06T05:35:15.199Z,34.95
2019-02-06T05:37:41.175Z,38.25
2019-02-06T05:40:09.386Z,40.20
2019-02-06T05:42:35.439Z,34.15
2019-02-06T05:45:02.255Z,36.80
2019-02-06T05:47:28.237Z,42.20
2019-02-06T05:49:54.260Z,36.20
2019-02-06T05:52:20.330Z,35.15
2019-02-06T05:54:46.336Z,30.63
2019-02-06T05:57:12.342Z,45.90
2019-02-06T05:59:38.336Z,37.28
2019-02-06T06:02:04.332Z,36.07
2019-02-06T06:04:30.420Z,37.30
2019-02-06T06:06:57.134Z,39.60
2019-02-06T06:09:23.157Z,34.58
2019-02-06T06:11:49.241Z,31.17
2019-02-06T06:14:15.219Z,29.45
2019-02-06T06:16:41.247Z,36.47
2019-02-06T06:19:07.250Z,36.93
2019-02-06T06:21:33.283Z,30.08
2019-02-06T06:23:59.285Z,34.18
2019-02-06T06:26:25.319Z,32.35
2019-02-06T06:28:51.974Z,38.02
2019-02-06T06:31:17.967Z,42.30
2019-02-06T06:33:43.989Z,34.27
2019-02-06T06:36:09.991Z,32.40
2019-02-06T06:38:36.032Z,36.65
2019-02-06T06:41:02.095Z,38.92
2019-02-06T06:43:28.114Z,35.85
2019-02-06T06:45:54.183Z,36.80
2019-02-06T06:48:20.219Z,37.33
2019-02-06T06:50:46.787Z,34.35
2019-02-06T06:53:13.128Z,40.08
2019-02-06T06:55:39.433Z,37.90
2019-02-06T06:58:05.450Z,39.08
2019-02-06T07:00:32.738Z,39.42
2019-02-06T07:02:58.859Z,35.40
2019-02-06T07:05:25.251Z,31.62
2019-02-06T07:07:52.192Z,38.10
2019-02-06T07:10:18.731Z,40.63
2019-02-06T07:12:44.887Z,43.13
2019-02-06T07:15:19.892Z,38.35
2019-02-06T07:17:46.081Z,34.75
2019-02-06T07:20:14.623Z,41.50
2019-02-06T07:22:40.623Z,40.43
2019-02-06T07:25:08.029Z,35.45
2019-02-06T07:27:34.443Z,37.45
2019-02-06T07:30:00.566Z,59.85
2019-02-06T07:32:26.767Z,65.95
2019-02-06T07:34:52.787Z,70.08
2019-02-06T07:37:18.815Z,58.28
2019-02-06T07:39:44.881Z,58.78
2019-02-06T07:42:10.880Z,52.33
2019-02-06T07:44:36.907Z,67.78
2019-02-06T07:47:03.123Z,83.45
2019-02-06T07:49:29.410Z,62.27
2019-02-06T07:51:55.476Z,41.45
2019-02-06T07:54:21.582Z,44.83
2019-02-06T07:56:47.575Z,37.17
2019-02-06T07:59:13.677Z,34.80
2019-02-06T08:01:39.864Z,42.62
2019-02-06T08:04:05.909Z,40.80
2019-02-06T08:06:31.894Z,40.12
2019-02-06T08:08:57.919Z,43.10
2019-02-06T08:11:23.960Z,37.67
2019-02-06T08:13:50.112Z,43.78
2019-02-06T08:16:16.113Z,41.15
2019-02-06T08:18:42.266Z,42.80
2019-02-06T08:21:08.352Z,39.20
2019-02-06T08:23:34.414Z,38.88
2019-02-06T08:26:00.484Z,40.10
2019-02-06T08:28:26.464Z,34.95
2019-02-06T08:30:52.897Z,42.75
2019-02-06T08:33:18.933Z,42.13
2019-02-06T08:35:45.083Z,38.67
2019-02-06T08:38:11.138Z,37.80
2019-02-06T08:40:37.250Z,41.80
2019-02-06T08:43:03.468Z,38.23
2019-02-06T08:45:40.681Z,39.63
2019-02-06T08:48:06.760Z,39.30
2019-02-06T08:50:33.016Z,44.03
2019-02-06T08:52:59.296Z,40.77
2019-02-06T08:55:27.300Z,46.10
2019-02-06T08:57:53.535Z,35.75
2019-02-06T09:00:28.125Z,41.28
2019-02-06T09:02:54.203Z,44.25
2019-02-06T09:05:20.233Z,47.45
2019-02-06T09:07:46.670Z,45.78
2019-02-06T09:10:29.360Z,42.83
2019-02-06T09:12:56.429Z,44.18
2019-02-06T09:15:22.645Z,43.78
2019-02-06T09:17:48.734Z,44.10
2019-02-06T09:20:17.967Z,42.13
2019-02-06T09:22:44.298Z,43.17
2019-02-06T09:25:16.521Z,44.67
2019-02-06T09:27:42.808Z,39.83
2019-02-06T09:30:12.659Z,45.90
2019-02-06T09:32:39.106Z,44.65
2019-02-06T09:35:05.914Z,51.05
2019-02-06T09:37:32.023Z,41.33
2019-02-06T09:40:03.736Z,45.90
2019-02-06T09:42:29.868Z,49.23
2019-02-06T09:44:55.925Z,43.92
2019-02-06T09:47:41.908Z,44.00
2019-02-06T09:50:11.823Z,41.48
2019-02-06T09:52:40.047Z,46.55
2019-02-06T09:55:06.427Z,47.80
2019-02-06T09:57:35.356Z,49.25
2019-02-06T10:00:00.384Z,44.35
2019-02-06T10:02:26.391Z,49.65
2019-02-06T10:04:52.439Z,41.15
2019-02-06T10:07:18.515Z,43.23
2019-02-06T10:09:44.569Z,45.05
2019-02-06T10:12:11.953Z,48.08
2019-02-06T10:14:38.228Z,45.40
2019-02-06T10:17:04.328Z,44.25
2019-02-06T10:19:30.451Z,52.50
2019-02-06T10:21:56.474Z,55.95
2019-02-06T10:24:22.500Z,44.03
2019-02-06T10:26:48.514Z,45.65
2019-02-06T10:29:14.798Z,41.65
2019-02-06T10:31:40.783Z,47.88
2019-02-06T10:34:07.251Z,41.70
2019-02-06T10:36:33.262Z,52.20
2019-02-06T10:38:59.775Z,47.40
2019-02-06T10:41:25.777Z,46.20
2019-02-06T10:43:51.783Z,40.43
2019-02-06T10:46:18.460Z,45.23
2019-02-06T10:48:44.643Z,37.37
2019-02-06T10:51:10.656Z,46.87
2019-02-06T10:53:37.278Z,50.83
2019-02-06T10:56:03.841Z,40.90
2019-02-06T10:58:29.959Z,48.13
2019-02-06T11:00:57.446Z,49.07
2019-02-06T11:03:23.467Z,49.87
2019-02-06T11:05:49.726Z,41.03
2019-02-06T11:08:15.893Z,45.00
2019-02-06T11:10:41.940Z,43.73
2019-02-06T11:13:08.041Z,46.97
2019-02-06T11:15:34.594Z,45.53
2019-02-06T11:18:00.783Z,47.90
2019-02-06T11:20:29.319Z,39.33
2019-02-06T11:22:55.379Z,45.63
2019-02-06T11:25:21.719Z,47.13
2019-02-06T11:27:47.763Z,48.27
2019-02-06T11:30:20.083Z,46.90
2019-02-06T11:32:46.522Z,42.43
2019-02-06T11:35:12.985Z,46.30
2019-02-06T11:37:38.995Z,46.37
2019-02-06T11:40:11.453Z,44.80
2019-02-06T11:42:37.492Z,46.20
2019-02-06T11:45:07.349Z,44.60
2019-02-06T11:47:33.367Z,48.03
2019-02-06T11:50:05.621Z,44.80
2019-02-06T11:52:31.621Z,44.50
2019-02-06T11:54:57.708Z,44.83
2019-02-06T11:57:24.361Z,47.23
2019-02-06T11:59:53.035Z,49.43
2019-02-06T12:02:20.297Z,50.50
2019-02-06T12:04:46.386Z,42.53
2019-02-06T12:07:12.405Z,44.33
2019-02-06T12:09:38.882Z,44.50
2019-02-06T12:12:04.996Z,48.57
2019-02-06T12:14:31.003Z,47.87
2019-02-06T12:16:57.101Z,45.13
2019-02-06T12:19:23.107Z,45.27
2019-02-06T12:21:49.125Z,49.93
2019-02-06T12:24:15.155Z,51.33
2019-02-06T12:26:41.168Z,53.50
2019-02-06T12:29:07.235Z,47.27
2019-02-06T12:31:34.784Z,45.67
2019-02-06T12:34:00.951Z,53.73
2019-02-06T12:36:26.970Z,47.97
2019-02-06T12:38:53.925Z,41.10
2019-02-06T12:41:20.193Z,56.27
2019-02-06T12:43:46.309Z,54.93
2019-02-06T12:46:12.368Z,43.03
2019-02-06T12:48:38.402Z,48.03
2019-02-06T12:51:04.753Z,43.57
2019-02-06T12:53:30.875Z,49.80
2019-02-06T12:55:57.137Z,43.60
2019-02-06T12:58:26.021Z,46.50
2019-02-06T13:00:51.102Z,43.07
2019-02-06T13:03:17.215Z,40.60
2019-02-06T13:05:43.324Z,45.17
2019-02-06T13:08:09.458Z,44.07
2019-02-06T13:10:35.607Z,47.90
2019-02-06T13:13:02.506Z,45.77
2019-02-06T13:15:28.876Z,47.40
2019-02-06T13:17:54.924Z,44.23
2019-02-06T13:20:32.416Z,46.67
2019-02-06T13:22:58.425Z,51.10
2019-02-06T13:25:24.858Z,43.87
2019-02-06T13:27:50.861Z,48.23
2019-02-06T13:30:27.164Z,43.47
2019-02-06T13:32:53.687Z,40.00
2019-02-06T13:35:19.943Z,40.60
2019-02-06T13:37:46.035Z,39.00
2019-02-06T13:40:15.146Z,46.90
2019-02-06T13:42:41.276Z,52.73
2019-02-06T13:45:23.427Z,41.20
2019-02-06T13:47:49.630Z,48.27
2019-02-06T13:50:22.115Z,44.00
2019-02-06T13:52:47.058Z,48.53
2019-02-06T13:55:14.951Z,41.90
2019-02-06T13:57:40.915Z,43.90
2019-02-06T14:00:13.655Z,44.40
2019-02-06T14:02:40.297Z,49.50
2019-02-06T14:05:06.954Z,47.10
2019-02-06T14:07:33.022Z,41.13
2019-02-06T14:09:59.035Z,46.20
2019-02-06T14:12:25.075Z,37.50
2019-02-06T14:14:51.096Z,37.23
2019-02-06T14:17:18.367Z,43.30
2019-02-06T14:19:44.634Z,39.57
2019-02-06T14:22:11.308Z,41.57
2019-02-06T14:24:41.196Z,35.10
2019-02-06T14:27:12.003Z,39.40
2019-02-06T14:30:01.492Z,43.20
2019-02-06T14:32:37.356Z,36.30
2019-02-06T14:35:24.134Z,38.47
2019-02-06T14:38:10.681Z,40.47
2019-02-06T14:40:49.461Z,37.10
2019-02-06T14:43:21.850Z,38.00
2019-02-06T14:46:03.761Z,38.93
2019-02-06T14:48:45.673Z,34.60
2019-02-06T14:51:15.636Z,32.37
2019-02-06T14:53:45.443Z,32.43
2019-02-06T14:56:21.094Z,33.33
2019-02-06T14:58:53.669Z,34.07
2019-02-06T15:01:31.694Z,31.10
2019-02-06T15:04:11.572Z,32.93
2019-02-06T15:06:47.587Z,33.30
2019-02-06T15:09:34.386Z,33.97
2019-02-06T15:12:16.198Z,40.20
2019-02-06T15:14:55.293Z,39.20
2019-02-06T15:17:37.510Z,43.27
2019-02-06T15:20:23.555Z,35.13
2019-02-06T15:23:13.479Z,38.17
2019-02-06T15:25:58.056Z,37.80
2019-02-06T15:28:33.617Z,41.83
2019-02-06T15:31:12.973Z,37.73
2019-02-06T15:33:42.811Z,38.10
2019-02-06T15:36:15.461Z,34.23
2019-02-06T15:39:19.154Z,44.50
2019-02-06T15:41:52.073Z,37.07
2019-02-06T15:44:24.743Z,41.87
2019-02-06T15:47:01.118Z,36.47
2019-02-06T15:49:36.755Z,37.33
2019-02-06T15:52:18.916Z,41.03
2019-02-06T15:54:48.751Z,36.17
2019-02-06T15:57:43.145Z,37.47
2019-02-06T16:00:18.792Z,40.40
2019-02-06T16:03:06.804Z,38.37
2019-02-06T16:05:53.574Z,39.17
2019-02-06T16:08:26.156Z,35.57
2019-02-06T16:11:02.102Z,31.73
2019-02-06T16:13:43.852Z,38.57
2019-02-06T16:16:30.560Z,34.60
2019-02-06T16:19:34.224Z,39.53
2019-02-06T16:22:12.939Z,39.80
2019-02-06T16:24:45.427Z,37.73
2019-02-06T16:27:18.524Z,34.87
2019-02-06T16:30:00.340Z,41.27
2019-02-06T16:32:28.998Z,40.70
2019-02-06T16:35:15.671Z,43.00
2019-02-06T16:37:54.216Z,39.00
2019-02-06T16:40:46.660Z,38.73
2019-02-06T16:43:43.811Z,35.63
2019-02-06T16:46:26.097Z,42.47
2019-02-06T16:49:04.718Z,44.47
2019-02-06T16:51:34.573Z,44.40
2019-02-06T16:54:25.557Z,42.93
2019-02-06T16:57:23.089Z,47.10
2019-02-06T16:59:55.835Z,44.40
2019-02-06T17:02:59.598Z,56.57
2019-02-06T17:05:38.737Z,64.23
2019-02-06T17:08:17.876Z,48.50
2019-02-06T17:11:00.332Z,43.10
2019-02-06T17:13:53.461Z,53.37
2019-02-06T17:16:43.053Z,47.93
2019-02-06T17:19:21.430Z,53.93
2019-02-06T17:22:23.460Z,49.17
2019-02-06T17:25:11.068Z,50.73
2019-02-06T17:27:57.460Z,40.80
2019-02-06T17:30:42.832Z,45.40
2019-02-06T17:33:24.398Z,45.23
2019-02-06T17:36:06.097Z,36.40
2019-02-06T17:38:44.512Z,37.90
2019-02-06T17:41:23.143Z,51.40
2019-02-06T17:44:12.565Z,95.27
2019-02-06T17:46:41.615Z,73.00
2019-02-06T17:49:14.420Z,44.03
2019-02-06T17:52:04.063Z,46.63
2019-02-06T17:55:10.478Z,43.63
2019-02-06T17:57:36.615Z,39.07
2019-02-06T18:00:17.930Z,42.33
2019-02-06T18:02:44.055Z,46.17
2019-02-06T18:05:10.111Z,45.80
2019-02-06T18:07:36.153Z,44.60
2019-02-06T18:10:06.053Z,43.23
2019-02-06T18:12:32.087Z,36.63
2019-02-06T18:14:58.408Z,42.83
2019-02-06T18:17:24.523Z,46.30
2019-02-06T18:19:50.579Z,49.10
2019-02-06T18:22:16.723Z,52.40
2019-02-06T18:24:42.784Z,48.70
2019-02-06T18:27:10.097Z,42.80
2019-02-06T18:29:36.300Z,43.67
2019-02-06T18:32:03.442Z,46.37
2019-02-06T18:34:29.458Z,47.40
2019-02-06T18:36:56.012Z,43.60
2019-02-06T18:39:22.143Z,47.60
2019-02-06T18:41:48.271Z,44.90
2019-02-06T18:44:14.370Z,44.60
2019-02-06T18:46:40.507Z,41.03
2019-02-06T18:49:06.590Z,38.73
2019-02-06T18:51:33.083Z,46.27
2019-02-06T18:53:59.112Z,41.50
2019-02-06T18:56:25.144Z,47.27
2019-02-06T18:58:51.164Z,42.90
2019-02-06T19:01:17.416Z,49.63
2019-02-06T19:03:44.241Z,46.07
2019-02-06T19:06:10.789Z,38.90
2019-02-06T19:08:36.990Z,47.53
2019-02-06T19:11:04.412Z,47.67
2019-02-06T19:13:30.411Z,42.53
2019-02-06T19:15:56.947Z,51.90
2019-02-06T19:18:23.029Z,41.93
2019-02-06T19:20:49.067Z,42.90
2019-02-06T19:23:16.442Z,46.87
2019-02-06T19:25:43.939Z,48.70
2019-02-06T19:28:10.234Z,49.20
2019-02-06T19:30:39.200Z,42.97
2019-02-06T19:33:08.754Z,43.83
2019-02-06T19:35:35.059Z,46.50
2019-02-06T19:38:04.389Z,43.07
2019-02-06T19:40:30.548Z,39.63
2019-02-06T19:43:02.196Z,40.03
2019-02-06T19:45:26.012Z,48.03
2019-02-06T19:47:57.263Z,43.70
2019-02-06T19:50:31.015Z,41.47
2019-02-06T19:52:58.656Z,39.58
2019-02-06T19:55:25.196Z,42.17
2019-02-06T19:57:51.247Z,42.63
2019-02-06T20:00:23.899Z,44.30
2019-02-06T20:02:50.475Z,59.33
2019-02-06T20:05:18.916Z,49.10
2019-02-06T20:07:45.248Z,66.20
2019-02-06T20:10:23.824Z,55.60
2019-02-06T20:12:50.388Z,44.30
2019-02-06T20:15:18.108Z,42.55
2019-02-06T20:17:44.352Z,47.80
2019-02-06T20:20:13.953Z,42.10
2019-02-06T20:22:40.276Z,42.63
2019-02-06T20:25:09.952Z,47.60
2019-02-06T20:27:36.026Z,47.15
2019-02-06T20:30:05.920Z,42.83
2019-02-06T20:32:32.038Z,48.00
2019-02-06T20:34:58.046Z,45.93
2019-02-06T20:37:26.315Z,50.70
2019-02-06T20:39:52.323Z,42.98
2019-02-06T20:42:19.469Z,43.60
2019-02-06T20:44:48.108Z,50.95
2019-02-06T20:47:16.195Z,45.25
2019-02-06T20:49:42.243Z,49.67
2019-02-06T20:52:08.451Z,43.17
2019-02-06T20:54:34.437Z,45.20
2019-02-06T20:57:11.836Z,54.97
2019-02-06T20:59:31.216Z,47.17
2019-02-06T21:01:58.489Z,49.47
2019-02-06T21:04:25.571Z,53.25
2019-02-06T21:06:52.664Z,45.60
2019-02-06T21:09:19.415Z,49.65
2019-02-06T21:11:47.661Z,109.87
2019-02-06T21:14:13.723Z,60.40
2019-02-06T21:17:00.734Z,47.40
2019-02-06T21:19:28.249Z,51.20
2019-02-06T21:21:54.694Z,87.47
2019-02-06T21:24:22.183Z,45.70
2019-02-06T21:26:50.158Z,54.53
2019-02-06T21:29:16.305Z,46.50
2019-02-06T21:31:46.105Z,47.13
2019-02-06T21:34:12.326Z,47.00
2019-02-06T21:36:38.320Z,55.70
2019-02-06T21:39:06.736Z,48.90
2019-02-06T21:41:32.758Z,55.60
2019-02-06T21:43:59.096Z,44.13
2019-02-06T21:46:25.107Z,72.87
2019-02-06T21:48:51.277Z,55.50
2019-02-06T21:51:17.266Z,49.53
2019-02-06T21:53:43.291Z,43.03
2019-02-06T21:56:09.289Z,47.10
2019-02-06T21:58:35.732Z,51.37
2019-02-06T22:01:01.960Z,50.03
2019-02-06T22:03:28.074Z,47.53
2019-02-06T22:05:54.153Z,48.40
2019-02-06T22:08:20.228Z,52.73
2019-02-06T22:10:46.271Z,43.92
2019-02-06T22:13:12.316Z,50.48
2019-02-06T22:15:38.424Z,59.23
2019-02-06T22:18:04.767Z,48.13
2019-02-06T22:20:30.874Z,51.83
2019-02-06T22:22:56.856Z,47.70
2019-02-06T22:25:23.027Z,46.10
2019-02-06T22:27:50.677Z,44.53
2019-02-06T22:30:19.866Z,47.38
2019-02-06T22:32:45.960Z,48.80
2019-02-06T22:35:12.185Z,48.38
2019-02-06T22:37:38.675Z,46.73
2019-02-06T22:40:08.181Z,54.70
2019-02-06T22:42:34.220Z,54.77
2019-02-06T22:45:00.296Z,47.83
2019-02-06T22:47:26.323Z,49.08
2019-02-06T22:49:52.334Z,45.78
2019-02-06T22:52:18.434Z,47.53
2019-02-06T22:54:44.451Z,45.52
2019-02-06T22:57:10.770Z,43.80
2019-02-06T22:59:36.763Z,45.23
2019-02-06T23:02:04.060Z,50.90
2019-02-06T23:04:30.084Z,47.40
2019-02-06T23:06:56.390Z,46.42
2019-02-06T23:09:22.492Z,54.65
2019-02-06T23:11:48.511Z,52.10
2019-02-06T23:14:18.293Z,49.38
2019-02-06T23:16:42.540Z,49.95
2019-02-06T23:19:08.563Z,47.85
2019-02-06T23:21:34.662Z,49.33
2019-02-06T23:24:00.670Z,52.20
2019-02-06T23:26:26.651Z,52.93
2019-02-06T23:28:52.679Z,42.93
2019-02-06T23:31:18.683Z,52.58
2019-02-06T23:33:44.687Z,47.03
2019-02-06T23:36:11.181Z,52.23
2019-02-06T23:38:37.190Z,51.77
2019-02-06T23:41:03.153Z,48.65
2019-02-06T23:43:29.154Z,51.77
2019-02-06T23:45:55.151Z,48.63
2019-02-06T23:48:21.476Z,48.07
2019-02-06T23:50:47.472Z,53.42
2019-02-06T23:53:13.455Z,50.60
2019-02-06T23:55:39.866Z,51.55
2019-02-06T23:58:05.844Z,41.30
